sensor_id;sensor_type;location;lat;lon;timestamp;temperature;humidity
9177;DHT22;4623;54.310;10.112;2022-09-27T00:00:22;11.90;99.90
9177;DHT22;4623;54.310;10.112;2022-09-27T00:02:47;11.90;99.90
9177;DHT22;4623;54.310;10.112;2022-09-27T00:05:14;11.90;99.90
9177;DHT22;4623;54.310;10.112;2022-09-27T00:07:40;11.90;99.90
9177;DHT22;4623;54.310;10.112;2022-09-27T00:10:06;11.90;99.90
9177;DHT22;4623;54.310;10.112;2022-09-27T00:12:33;11.90;99.90
9177;DHT22;4623;54.310;10.112;2022-09-27T00:14:59;12.00;99.90
9177;DHT22;4623;54.310;10.112;2022-09-27T00:17:25;11.90;99.90
9177;DHT22;4623;54.310;10.112;2022-09-27T00:19:51;11.90;99.90
9177;DHT22;4623;54.310;10.112;2022-09-27T00:22:17;11.90;99.90
9177;DHT22;4623;54.310;10.112;2022-09-27T00:24:42;11.90;99.90
9177;DHT22;4623;54.310;10.112;2022-09-27T00:27:08;11.90;99.90
9177;DHT22;4623;54.310;10.112;2022-09-27T00:29:34;12.00;99.90
9177;DHT22;4623;54.310;10.112;2022-09-27T00:31:59;12.00;99.90
9177;DHT22;4623;54.310;10.112;2022-09-27T00:34:25;12.00;99.90
9177;DHT22;4623;54.310;10.112;2022-09-27T00:36:52;12.00;99.90
9177;DHT22;4623;54.310;10.112;2022-09-27T00:39:18;11.90;99.90
9177;DHT22;4623;54.310;10.112;2022-09-27T00:41:44;11.90;99.90
9177;DHT22;4623;54.310;10.112;2022-09-27T00:50:50;11.80;99.90
9177;DHT22;4623;54.310;10.112;2022-09-27T00:55:22;11.90;99.90
9177;DHT22;4623;54.310;10.112;2022-09-27T00:57:50;11.80;99.90
9177;DHT22;4623;54.310;10.112;2022-09-27T01:00:16;11.80;99.90
9177;DHT22;4623;54.310;10.112;2022-09-27T01:02:46;11.80;99.90
9177;DHT22;4623;54.310;10.112;2022-09-27T01:05:15;11.80;99.90
9177;DHT22;4623;54.310;10.112;2022-09-27T01:07:41;11.80;99.90
9177;DHT22;4623;54.310;10.112;2022-09-27T01:10:07;11.80;99.90
9177;DHT22;4623;54.310;10.112;2022-09-27T01:15:39;11.80;99.90
9177;DHT22;4623;54.310;10.112;2022-09-27T01:32:31;11.90;99.90
9177;DHT22;4623;54.310;10.112;2022-09-27T01:34:42;11.80;99.90
9177;DHT22;4623;54.310;10.112;2022-09-27T01:45:03;11.90;99.90
9177;DHT22;4623;54.310;10.112;2022-09-27T01:47:44;11.90;99.90
9177;DHT22;4623;54.310;10.112;2022-09-27T01:50:15;11.90;99.90
9177;DHT22;4623;54.310;10.112;2022-09-27T01:52:48;11.90;99.90
9177;DHT22;4623;54.310;10.112;2022-09-27T01:55:15;11.90;99.90
9177;DHT22;4623;54.310;10.112;2022-09-27T01:57:48;11.80;99.90
9177;DHT22;4623;54.310;10.112;2022-09-27T02:00:15;11.80;99.90
9177;DHT22;4623;54.310;10.112;2022-09-27T02:02:48;11.80;99.90
9177;DHT22;4623;54.310;10.112;2022-09-27T02:05:14;11.80;99.90
9177;DHT22;4623;54.310;10.112;2022-09-27T02:08:06;11.80;99.90
9177;DHT22;4623;54.310;10.112;2022-09-27T02:10:38;11.80;99.90
9177;DHT22;4623;54.310;10.112;2022-09-27T02:13:11;11.90;99.90
9177;DHT22;4623;54.310;10.112;2022-09-27T02:15:56;11.90;99.90
9177;DHT22;4623;54.310;10.112;2022-09-27T02:18:35;11.90;99.90
9177;DHT22;4623;54.310;10.112;2022-09-27T02:21:07;11.90;99.90
9177;DHT22;4623;54.310;10.112;2022-09-27T02:31:41;11.80;99.90
9177;DHT22;4623;54.310;10.112;2022-09-27T02:34:13;11.80;99.90
9177;DHT22;4623;54.310;10.112;2022-09-27T02:36:40;11.80;99.90
9177;DHT22;4623;54.310;10.112;2022-09-27T02:39:06;11.80;99.90
9177;DHT22;4623;54.310;10.112;2022-09-27T02:41:32;11.80;99.90
9177;DHT22;4623;54.310;10.112;2022-09-27T02:44:04;11.80;99.90
9177;DHT22;4623;54.310;10.112;2022-09-27T02:46:46;11.80;99.90
9177;DHT22;4623;54.310;10.112;2022-09-27T02:55:29;11.70;99.90
9177;DHT22;4623;54.310;10.112;2022-09-27T03:03:41;11.80;99.90
9177;DHT22;4623;54.310;10.112;2022-09-27T03:06:12;11.80;99.90
9177;DHT22;4623;54.310;10.112;2022-09-27T03:08:38;11.80;99.90
9177;DHT22;4623;54.310;10.112;2022-09-27T03:11:04;11.70;99.90
9177;DHT22;4623;54.310;10.112;2022-09-27T03:13:30;11.70;99.90
9177;DHT22;4623;54.310;10.112;2022-09-27T03:15:56;11.70;99.90
9177;DHT22;4623;54.310;10.112;2022-09-27T03:18:21;11.70;99.90
9177;DHT22;4623;54.310;10.112;2022-09-27T03:20:47;11.70;99.90
9177;DHT22;4623;54.310;10.112;2022-09-27T03:23:13;11.80;99.90
9177;DHT22;4623;54.310;10.112;2022-09-27T03:25:39;11.80;99.90
9177;DHT22;4623;54.310;10.112;2022-09-27T03:28:05;11.80;99.90
9177;DHT22;4623;54.310;10.112;2022-09-27T03:30:31;11.80;99.90
9177;DHT22;4623;54.310;10.112;2022-09-27T03:32:56;11.80;99.90
9177;DHT22;4623;54.310;10.112;2022-09-27T03:35:22;11.80;99.90
9177;DHT22;4623;54.310;10.112;2022-09-27T03:37:47;11.80;99.90
9177;DHT22;4623;54.310;10.112;2022-09-27T03:40:14;11.80;99.90
9177;DHT22;4623;54.310;10.112;2022-09-27T03:42:39;11.80;99.90
9177;DHT22;4623;54.310;10.112;2022-09-27T03:45:05;11.80;99.90
9177;DHT22;4623;54.310;10.112;2022-09-27T03:47:31;11.80;99.90
9177;DHT22;4623;54.310;10.112;2022-09-27T03:49:57;11.80;99.90
9177;DHT22;4623;54.310;10.112;2022-09-27T03:52:22;11.80;99.90
9177;DHT22;4623;54.310;10.112;2022-09-27T03:54:49;11.80;99.90
9177;DHT22;4623;54.310;10.112;2022-09-27T03:57:15;11.80;99.90
9177;DHT22;4623;54.310;10.112;2022-09-27T03:59:41;11.70;99.90
9177;DHT22;4623;54.310;10.112;2022-09-27T04:02:06;11.80;99.90
9177;DHT22;4623;54.310;10.112;2022-09-27T04:04:32;11.80;99.90
9177;DHT22;4623;54.310;10.112;2022-09-27T04:06:57;11.80;99.90
9177;DHT22;4623;54.310;10.112;2022-09-27T04:09:23;11.80;99.90
9177;DHT22;4623;54.310;10.112;2022-09-27T04:11:49;11.70;99.90
9177;DHT22;4623;54.310;10.112;2022-09-27T04:14:15;11.70;99.90
9177;DHT22;4623;54.310;10.112;2022-09-27T04:16:40;11.70;99.90
9177;DHT22;4623;54.310;10.112;2022-09-27T04:19:07;11.70;99.90
9177;DHT22;4623;54.310;10.112;2022-09-27T04:21:33;11.60;99.90
9177;DHT22;4623;54.310;10.112;2022-09-27T04:23:59;11.60;99.90
9177;DHT22;4623;54.310;10.112;2022-09-27T04:26:25;11.60;99.90
9177;DHT22;4623;54.310;10.112;2022-09-27T04:28:51;11.60;99.90
9177;DHT22;4623;54.310;10.112;2022-09-27T04:31:17;11.60;99.90
9177;DHT22;4623;54.310;10.112;2022-09-27T04:33:43;11.60;99.90
9177;DHT22;4623;54.310;10.112;2022-09-27T04:36:16;11.60;99.90
9177;DHT22;4623;54.310;10.112;2022-09-27T04:38:52;11.60;99.90
9177;DHT22;4623;54.310;10.112;2022-09-27T04:41:18;11.70;99.90
9177;DHT22;4623;54.310;10.112;2022-09-27T04:43:46;11.60;99.90
9177;DHT22;4623;54.310;10.112;2022-09-27T04:46:12;11.50;99.90
9177;DHT22;4623;54.310;10.112;2022-09-27T04:48:38;11.60;99.90
9177;DHT22;4623;54.310;10.112;2022-09-27T04:51:04;11.60;99.90
9177;DHT22;4623;54.310;10.112;2022-09-27T04:53:30;11.60;99.90
9177;DHT22;4623;54.310;10.112;2022-09-27T04:55:56;11.60;99.90
9177;DHT22;4623;54.310;10.112;2022-09-27T04:58:22;11.60;99.90
9177;DHT22;4623;54.310;10.112;2022-09-27T05:00:48;11.50;99.90
9177;DHT22;4623;54.310;10.112;2022-09-27T05:03:17;11.50;99.90
9177;DHT22;4623;54.310;10.112;2022-09-27T05:05:43;11.50;99.90
9177;DHT22;4623;54.310;10.112;2022-09-27T05:08:09;11.50;99.90
9177;DHT22;4623;54.310;10.112;2022-09-27T05:10:35;11.40;99.90
9177;DHT22;4623;54.310;10.112;2022-09-27T05:13:00;11.40;99.90
9177;DHT22;4623;54.310;10.112;2022-09-27T05:15:26;11.40;99.90
9177;DHT22;4623;54.310;10.112;2022-09-27T05:17:52;11.40;99.90
9177;DHT22;4623;54.310;10.112;2022-09-27T05:20:18;11.50;99.90
9177;DHT22;4623;54.310;10.112;2022-09-27T05:22:44;11.40;99.90
9177;DHT22;4623;54.310;10.112;2022-09-27T05:25:10;11.40;99.90
9177;DHT22;4623;54.310;10.112;2022-09-27T05:27:36;11.40;99.90
9177;DHT22;4623;54.310;10.112;2022-09-27T05:30:02;11.40;99.90
9177;DHT22;4623;54.310;10.112;2022-09-27T05:32:28;11.40;99.90
9177;DHT22;4623;54.310;10.112;2022-09-27T05:34:54;11.40;99.90
9177;DHT22;4623;54.310;10.112;2022-09-27T05:37:20;11.40;99.90
9177;DHT22;4623;54.310;10.112;2022-09-27T05:39:46;11.50;99.90
9177;DHT22;4623;54.310;10.112;2022-09-27T05:42:12;11.50;99.90
9177;DHT22;4623;54.310;10.112;2022-09-27T05:44:40;11.50;99.90
9177;DHT22;4623;54.310;10.112;2022-09-27T05:47:06;11.50;99.90
9177;DHT22;4623;54.310;10.112;2022-09-27T05:49:32;11.50;99.90
9177;DHT22;4623;54.310;10.112;2022-09-27T05:51:58;11.40;99.90
9177;DHT22;4623;54.310;10.112;2022-09-27T05:54:24;11.50;99.90
9177;DHT22;4623;54.310;10.112;2022-09-27T05:56:54;11.50;99.90
9177;DHT22;4623;54.310;10.112;2022-09-27T05:59:23;11.60;99.90
9177;DHT22;4623;54.310;10.112;2022-09-27T06:01:49;11.60;99.90
9177;DHT22;4623;54.310;10.112;2022-09-27T06:04:16;11.60;99.90
9177;DHT22;4623;54.310;10.112;2022-09-27T06:06:42;11.60;99.90
9177;DHT22;4623;54.310;10.112;2022-09-27T06:09:15;11.60;99.90
9177;DHT22;4623;54.310;10.112;2022-09-27T06:11:42;11.60;99.90
9177;DHT22;4623;54.310;10.112;2022-09-27T06:14:11;11.60;99.90
9177;DHT22;4623;54.310;10.112;2022-09-27T06:16:38;11.60;99.90
9177;DHT22;4623;54.310;10.112;2022-09-27T06:19:03;11.70;99.90
9177;DHT22;4623;54.310;10.112;2022-09-27T06:21:29;11.60;99.90
9177;DHT22;4623;54.310;10.112;2022-09-27T06:23:57;11.60;99.90
9177;DHT22;4623;54.310;10.112;2022-09-27T06:26:24;11.70;99.90
9177;DHT22;4623;54.310;10.112;2022-09-27T06:28:54;11.70;99.90
9177;DHT22;4623;54.310;10.112;2022-09-27T06:31:20;11.60;99.90
9177;DHT22;4623;54.310;10.112;2022-09-27T06:33:47;11.60;99.90
9177;DHT22;4623;54.310;10.112;2022-09-27T06:36:13;11.70;99.90
9177;DHT22;4623;54.310;10.112;2022-09-27T06:38:39;11.70;99.90
9177;DHT22;4623;54.310;10.112;2022-09-27T06:41:05;11.70;99.90
9177;DHT22;4623;54.310;10.112;2022-09-27T06:43:32;11.70;99.90
9177;DHT22;4623;54.310;10.112;2022-09-27T06:46:02;11.80;99.90
9177;DHT22;4623;54.310;10.112;2022-09-27T06:48:32;11.90;99.90
9177;DHT22;4623;54.310;10.112;2022-09-27T06:50:58;11.90;99.90
9177;DHT22;4623;54.310;10.112;2022-09-27T06:53:24;11.90;99.90
9177;DHT22;4623;54.310;10.112;2022-09-27T06:55:50;12.00;99.90
9177;DHT22;4623;54.310;10.112;2022-09-27T06:58:17;12.00;99.90
9177;DHT22;4623;54.310;10.112;2022-09-27T07:01:01;12.00;99.90
9177;DHT22;4623;54.310;10.112;2022-09-27T07:03:27;12.10;99.90
9177;DHT22;4623;54.310;10.112;2022-09-27T07:06:01;12.10;99.90
9177;DHT22;4623;54.310;10.112;2022-09-27T07:08:28;12.10;99.90
9177;DHT22;4623;54.310;10.112;2022-09-27T07:11:02;12.10;99.90
9177;DHT22;4623;54.310;10.112;2022-09-27T07:13:29;12.20;99.90
9177;DHT22;4623;54.310;10.112;2022-09-27T07:15:57;12.20;99.90
9177;DHT22;4623;54.310;10.112;2022-09-27T07:18:23;12.20;99.90
9177;DHT22;4623;54.310;10.112;2022-09-27T07:20:49;12.20;99.90
9177;DHT22;4623;54.310;10.112;2022-09-27T07:23:18;12.30;99.90
9177;DHT22;4623;54.310;10.112;2022-09-27T07:25:43;12.40;99.90
9177;DHT22;4623;54.310;10.112;2022-09-27T07:28:15;12.50;99.90
9177;DHT22;4623;54.310;10.112;2022-09-27T07:30:40;12.40;99.90
9177;DHT22;4623;54.310;10.112;2022-09-27T07:33:07;12.50;99.90
9177;DHT22;4623;54.310;10.112;2022-09-27T07:35:34;12.50;99.90
9177;DHT22;4623;54.310;10.112;2022-09-27T07:38:05;12.50;99.90
9177;DHT22;4623;54.310;10.112;2022-09-27T07:40:35;12.50;99.90
9177;DHT22;4623;54.310;10.112;2022-09-27T07:43:01;12.40;99.90
9177;DHT22;4623;54.310;10.112;2022-09-27T07:45:27;12.40;99.90
9177;DHT22;4623;54.310;10.112;2022-09-27T07:47:53;12.50;99.90
9177;DHT22;4623;54.310;10.112;2022-09-27T07:50:19;12.50;99.90
9177;DHT22;4623;54.310;10.112;2022-09-27T07:52:47;12.50;99.90
9177;DHT22;4623;54.310;10.112;2022-09-27T07:55:14;12.40;99.90
9177;DHT22;4623;54.310;10.112;2022-09-27T07:57:40;12.40;99.90
9177;DHT22;4623;54.310;10.112;2022-09-27T08:00:08;12.50;99.90
9177;DHT22;4623;54.310;10.112;2022-09-27T08:02:35;12.50;99.90
9177;DHT22;4623;54.310;10.112;2022-09-27T08:05:01;12.50;99.90
9177;DHT22;4623;54.310;10.112;2022-09-27T08:07:28;12.50;99.90
9177;DHT22;4623;54.310;10.112;2022-09-27T08:09:54;12.50;99.90
9177;DHT22;4623;54.310;10.112;2022-09-27T08:12:19;12.40;99.90
9177;DHT22;4623;54.310;10.112;2022-09-27T08:14:46;12.40;99.90
9177;DHT22;4623;54.310;10.112;2022-09-27T08:17:12;12.50;99.90
9177;DHT22;4623;54.310;10.112;2022-09-27T08:19:38;12.50;99.90
9177;DHT22;4623;54.310;10.112;2022-09-27T08:22:05;12.50;99.90
9177;DHT22;4623;54.310;10.112;2022-09-27T08:24:31;12.50;99.90
9177;DHT22;4623;54.310;10.112;2022-09-27T08:26:58;12.50;99.90
9177;DHT22;4623;54.310;10.112;2022-09-27T08:29:23;12.50;99.90
9177;DHT22;4623;54.310;10.112;2022-09-27T08:31:52;12.50;99.90
9177;DHT22;4623;54.310;10.112;2022-09-27T08:34:19;12.50;99.90
9177;DHT22;4623;54.310;10.112;2022-09-27T08:36:44;12.60;99.90
9177;DHT22;4623;54.310;10.112;2022-09-27T08:39:10;12.60;99.90
9177;DHT22;4623;54.310;10.112;2022-09-27T08:41:36;12.60;99.90
9177;DHT22;4623;54.310;10.112;2022-09-27T08:49:53;12.80;99.90
9177;DHT22;4623;54.310;10.112;2022-09-27T08:52:26;12.90;99.90
9177;DHT22;4623;54.310;10.112;2022-09-27T08:54:55;12.90;99.90
9177;DHT22;4623;54.310;10.112;2022-09-27T08:57:23;13.00;99.90
9177;DHT22;4623;54.310;10.112;2022-09-27T09:00:06;13.00;99.90
9177;DHT22;4623;54.310;10.112;2022-09-27T09:02:33;13.00;99.90
9177;DHT22;4623;54.310;10.112;2022-09-27T09:05:05;13.00;99.90
9177;DHT22;4623;54.310;10.112;2022-09-27T09:07:57;13.10;99.90
9177;DHT22;4623;54.310;10.112;2022-09-27T09:10:47;13.10;99.90
9177;DHT22;4623;54.310;10.112;2022-09-27T09:13:42;13.20;99.90
9177;DHT22;4623;54.310;10.112;2022-09-27T09:16:30;13.20;99.90
9177;DHT22;4623;54.310;10.112;2022-09-27T09:19:14;13.20;99.90
9177;DHT22;4623;54.310;10.112;2022-09-27T09:24:58;13.30;99.90
9177;DHT22;4623;54.310;10.112;2022-09-27T09:27:35;13.40;99.90
9177;DHT22;4623;54.310;10.112;2022-09-27T09:35:34;13.50;99.90
9177;DHT22;4623;54.310;10.112;2022-09-27T09:38:05;13.50;99.90
9177;DHT22;4623;54.310;10.112;2022-09-27T09:40:41;13.50;99.90
9177;DHT22;4623;54.310;10.112;2022-09-27T09:43:14;13.40;99.90
9177;DHT22;4623;54.310;10.112;2022-09-27T09:45:47;13.50;99.90
9177;DHT22;4623;54.310;10.112;2022-09-27T09:48:37;13.50;99.90
9177;DHT22;4623;54.310;10.112;2022-09-27T09:51:07;13.60;99.90
9177;DHT22;4623;54.310;10.112;2022-09-27T09:53:47;13.70;99.90
9177;DHT22;4623;54.310;10.112;2022-09-27T09:56:22;13.60;99.90
9177;DHT22;4623;54.310;10.112;2022-09-27T09:58:58;13.60;99.90
9177;DHT22;4623;54.310;10.112;2022-09-27T10:01:43;13.60;99.90
9177;DHT22;4623;54.310;10.112;2022-09-27T10:04:19;13.60;99.90
9177;DHT22;4623;54.310;10.112;2022-09-27T10:06:46;13.60;99.90
9177;DHT22;4623;54.310;10.112;2022-09-27T10:09:14;13.60;99.90
9177;DHT22;4623;54.310;10.112;2022-09-27T10:11:44;13.50;99.90
9177;DHT22;4623;54.310;10.112;2022-09-27T10:14:13;13.40;99.90
9177;DHT22;4623;54.310;10.112;2022-09-27T10:16:41;13.30;99.90
9177;DHT22;4623;54.310;10.112;2022-09-27T10:19:10;13.30;99.90
9177;DHT22;4623;54.310;10.112;2022-09-27T10:21:40;13.30;99.90
9177;DHT22;4623;54.310;10.112;2022-09-27T10:24:15;13.30;99.90
9177;DHT22;4623;54.310;10.112;2022-09-27T10:26:43;13.20;99.90
9177;DHT22;4623;54.310;10.112;2022-09-27T10:31:45;13.40;99.90
9177;DHT22;4623;54.310;10.112;2022-09-27T10:34:48;13.40;99.90
9177;DHT22;4623;54.310;10.112;2022-09-27T10:37:19;13.50;99.90
9177;DHT22;4623;54.310;10.112;2022-09-27T10:39:47;13.50;99.90
9177;DHT22;4623;54.310;10.112;2022-09-27T10:42:35;13.60;99.90
9177;DHT22;4623;54.310;10.112;2022-09-27T10:45:32;13.70;99.90
9177;DHT22;4623;54.310;10.112;2022-09-27T10:47:59;13.70;99.90
9177;DHT22;4623;54.310;10.112;2022-09-27T10:50:30;13.70;99.90
9177;DHT22;4623;54.310;10.112;2022-09-27T10:53:12;13.80;99.90
9177;DHT22;4623;54.310;10.112;2022-09-27T10:55:39;13.80;99.90
9177;DHT22;4623;54.310;10.112;2022-09-27T10:58:33;13.80;99.90
9177;DHT22;4623;54.310;10.112;2022-09-27T11:01:07;13.80;99.90
9177;DHT22;4623;54.310;10.112;2022-09-27T11:03:38;13.90;99.90
9177;DHT22;4623;54.310;10.112;2022-09-27T11:06:24;13.90;99.90
9177;DHT22;4623;54.310;10.112;2022-09-27T11:08:53;14.00;99.90
9177;DHT22;4623;54.310;10.112;2022-09-27T11:11:21;14.10;99.90
9177;DHT22;4623;54.310;10.112;2022-09-27T11:14:02;14.10;99.90
9177;DHT22;4623;54.310;10.112;2022-09-27T11:24:34;14.10;99.90
9177;DHT22;4623;54.310;10.112;2022-09-27T11:27:08;14.00;99.90
9177;DHT22;4623;54.310;10.112;2022-09-27T11:29:47;14.00;99.90
9177;DHT22;4623;54.310;10.112;2022-09-27T11:41:06;14.10;99.90
9177;DHT22;4623;54.310;10.112;2022-09-27T11:56:06;14.10;99.90
9177;DHT22;4623;54.310;10.112;2022-09-27T11:58:13;14.20;99.90
9177;DHT22;4623;54.310;10.112;2022-09-27T12:06:21;14.20;99.90
9177;DHT22;4623;54.310;10.112;2022-09-27T12:11:33;14.30;99.90
9177;DHT22;4623;54.310;10.112;2022-09-27T12:14:01;14.40;99.90
9177;DHT22;4623;54.310;10.112;2022-09-27T12:16:30;14.50;99.90
9177;DHT22;4623;54.310;10.112;2022-09-27T12:18:57;14.60;99.90
9177;DHT22;4623;54.310;10.112;2022-09-27T12:21:24;14.60;99.90
9177;DHT22;4623;54.310;10.112;2022-09-27T12:23:54;14.60;99.90
9177;DHT22;4623;54.310;10.112;2022-09-27T12:26:51;14.60;99.90
9177;DHT22;4623;54.310;10.112;2022-09-27T12:29:25;14.60;99.90
9177;DHT22;4623;54.310;10.112;2022-09-27T12:32:12;14.50;99.90
9177;DHT22;4623;54.310;10.112;2022-09-27T12:35:15;14.30;99.90
9177;DHT22;4623;54.310;10.112;2022-09-27T12:37:51;14.20;99.90
9177;DHT22;4623;54.310;10.112;2022-09-27T12:40:25;14.20;99.90
9177;DHT22;4623;54.310;10.112;2022-09-27T12:43:30;14.30;99.90
9177;DHT22;4623;54.310;10.112;2022-09-27T12:51:21;14.30;99.90
9177;DHT22;4623;54.310;10.112;2022-09-27T13:11:29;14.20;99.90
9177;DHT22;4623;54.310;10.112;2022-09-27T13:14:01;14.30;99.90
9177;DHT22;4623;54.310;10.112;2022-09-27T13:16:27;14.30;99.90
9177;DHT22;4623;54.310;10.112;2022-09-27T13:18:57;14.30;99.90
9177;DHT22;4623;54.310;10.112;2022-09-27T13:27:12;14.30;99.90
9177;DHT22;4623;54.310;10.112;2022-09-27T13:29:52;14.40;99.90
9177;DHT22;4623;54.310;10.112;2022-09-27T13:32:37;14.30;99.90
9177;DHT22;4623;54.310;10.112;2022-09-27T13:37:49;14.30;99.90
9177;DHT22;4623;54.310;10.112;2022-09-27T13:43:07;14.10;99.90
9177;DHT22;4623;54.310;10.112;2022-09-27T13:45:55;14.20;99.90
9177;DHT22;4623;54.310;10.112;2022-09-27T13:51:33;14.10;99.90
9177;DHT22;4623;54.310;10.112;2022-09-27T13:54:05;14.10;99.90
9177;DHT22;4623;54.310;10.112;2022-09-27T14:01:51;13.90;99.90
9177;DHT22;4623;54.310;10.112;2022-09-27T14:04:27;13.80;99.90
9177;DHT22;4623;54.310;10.112;2022-09-27T14:06:57;13.60;99.90
9177;DHT22;4623;54.310;10.112;2022-09-27T14:09:28;13.60;99.90
9177;DHT22;4623;54.310;10.112;2022-09-27T14:11:59;13.50;99.90
9177;DHT22;4623;54.310;10.112;2022-09-27T14:14:28;13.40;99.90
9177;DHT22;4623;54.310;10.112;2022-09-27T14:16:57;13.30;99.90
9177;DHT22;4623;54.310;10.112;2022-09-27T14:19:24;13.30;99.90
9177;DHT22;4623;54.310;10.112;2022-09-27T14:21:51;13.20;99.90
9177;DHT22;4623;54.310;10.112;2022-09-27T14:24:31;13.20;99.90
9177;DHT22;4623;54.310;10.112;2022-09-27T14:29:58;13.20;99.90
9177;DHT22;4623;54.310;10.112;2022-09-27T14:32:28;13.20;99.90
9177;DHT22;4623;54.310;10.112;2022-09-27T14:37:31;13.20;99.90
9177;DHT22;4623;54.310;10.112;2022-09-27T14:40:05;13.20;99.90
9177;DHT22;4623;54.310;10.112;2022-09-27T14:42:34;13.20;99.90
9177;DHT22;4623;54.310;10.112;2022-09-27T14:45:27;13.30;99.90
9177;DHT22;4623;54.310;10.112;2022-09-27T14:47:52;13.20;99.90
9177;DHT22;4623;54.310;10.112;2022-09-27T14:50:29;13.20;99.90
9177;DHT22;4623;54.310;10.112;2022-09-27T14:52:56;13.30;99.90
9177;DHT22;4623;54.310;10.112;2022-09-27T14:55:26;13.30;99.90
9177;DHT22;4623;54.310;10.112;2022-09-27T14:57:58;13.30;99.90
9177;DHT22;4623;54.310;10.112;2022-09-27T15:00:27;13.40;99.90
9177;DHT22;4623;54.310;10.112;2022-09-27T15:02:59;13.50;99.90
9177;DHT22;4623;54.310;10.112;2022-09-27T15:05:30;13.60;99.90
9177;DHT22;4623;54.310;10.112;2022-09-27T15:07:58;13.50;99.90
9177;DHT22;4623;54.310;10.112;2022-09-27T15:10:27;13.70;99.90
9177;DHT22;4623;54.310;10.112;2022-09-27T15:12:56;13.70;99.90
9177;DHT22;4623;54.310;10.112;2022-09-27T15:15:32;13.80;99.90
9177;DHT22;4623;54.310;10.112;2022-09-27T15:18:02;13.80;99.90
9177;DHT22;4623;54.310;10.112;2022-09-27T15:20:33;13.70;99.90
9177;DHT22;4623;54.310;10.112;2022-09-27T15:23:00;13.70;99.90
9177;DHT22;4623;54.310;10.112;2022-09-27T15:25:30;13.50;99.90
9177;DHT22;4623;54.310;10.112;2022-09-27T15:28:01;13.50;99.90
9177;DHT22;4623;54.310;10.112;2022-09-27T15:30:39;13.50;99.90
9177;DHT22;4623;54.310;10.112;2022-09-27T15:33:18;13.50;99.90
9177;DHT22;4623;54.310;10.112;2022-09-27T15:35:49;13.50;99.90
9177;DHT22;4623;54.310;10.112;2022-09-27T15:43:42;13.50;99.90
9177;DHT22;4623;54.310;10.112;2022-09-27T15:46:36;13.40;99.90
9177;DHT22;4623;54.310;10.112;2022-09-27T15:49:25;13.40;99.90
9177;DHT22;4623;54.310;10.112;2022-09-27T15:51:53;13.50;99.90
9177;DHT22;4623;54.310;10.112;2022-09-27T15:54:21;13.50;99.90
9177;DHT22;4623;54.310;10.112;2022-09-27T15:56:51;13.40;99.90
9177;DHT22;4623;54.310;10.112;2022-09-27T15:59:23;13.40;99.90
9177;DHT22;4623;54.310;10.112;2022-09-27T16:01:54;13.30;99.90
9177;DHT22;4623;54.310;10.112;2022-09-27T16:04:20;13.30;99.90
9177;DHT22;4623;54.310;10.112;2022-09-27T16:06:46;13.40;99.90
9177;DHT22;4623;54.310;10.112;2022-09-27T16:09:19;13.40;99.90
9177;DHT22;4623;54.310;10.112;2022-09-27T16:11:46;13.30;99.90
9177;DHT22;4623;54.310;10.112;2022-09-27T16:14:12;13.30;99.90
9177;DHT22;4623;54.310;10.112;2022-09-27T16:16:42;13.20;99.90
9177;DHT22;4623;54.310;10.112;2022-09-27T16:19:08;13.20;99.90
9177;DHT22;4623;54.310;10.112;2022-09-27T16:21:33;13.10;99.90
9177;DHT22;4623;54.310;10.112;2022-09-27T16:23:59;13.10;99.90
9177;DHT22;4623;54.310;10.112;2022-09-27T16:26:26;13.00;99.90
9177;DHT22;4623;54.310;10.112;2022-09-27T16:28:52;12.90;99.90
9177;DHT22;4623;54.310;10.112;2022-09-27T16:31:18;12.90;99.90
9177;DHT22;4623;54.310;10.112;2022-09-27T16:33:47;12.80;99.90
9177;DHT22;4623;54.310;10.112;2022-09-27T16:36:13;12.80;99.90
9177;DHT22;4623;54.310;10.112;2022-09-27T16:38:46;12.80;99.90
9177;DHT22;4623;54.310;10.112;2022-09-27T16:41:12;12.80;99.90
9177;DHT22;4623;54.310;10.112;2022-09-27T16:43:38;12.90;99.90
9177;DHT22;4623;54.310;10.112;2022-09-27T16:46:07;12.90;99.90
9177;DHT22;4623;54.310;10.112;2022-09-27T16:48:36;12.90;99.90
9177;DHT22;4623;54.310;10.112;2022-09-27T16:51:15;12.90;99.90
9177;DHT22;4623;54.310;10.112;2022-09-27T16:54:00;12.90;99.90
9177;DHT22;4623;54.310;10.112;2022-09-27T16:56:26;12.80;99.90
9177;DHT22;4623;54.310;10.112;2022-09-27T16:58:52;12.80;99.90
9177;DHT22;4623;54.310;10.112;2022-09-27T17:01:18;12.80;99.90
9177;DHT22;4623;54.310;10.112;2022-09-27T17:03:48;12.80;99.90
9177;DHT22;4623;54.310;10.112;2022-09-27T17:06:16;12.80;99.90
9177;DHT22;4623;54.310;10.112;2022-09-27T17:08:42;12.80;99.90
9177;DHT22;4623;54.310;10.112;2022-09-27T17:11:10;12.70;99.90
9177;DHT22;4623;54.310;10.112;2022-09-27T17:13:35;12.60;99.90
9177;DHT22;4623;54.310;10.112;2022-09-27T17:16:03;12.60;99.90
9177;DHT22;4623;54.310;10.112;2022-09-27T17:18:29;12.50;99.90
9177;DHT22;4623;54.310;10.112;2022-09-27T17:21:02;12.50;99.90
9177;DHT22;4623;54.310;10.112;2022-09-27T17:23:30;12.50;99.90
9177;DHT22;4623;54.310;10.112;2022-09-27T17:26:01;12.50;99.90
9177;DHT22;4623;54.310;10.112;2022-09-27T17:28:27;12.60;99.90
9177;DHT22;4623;54.310;10.112;2022-09-27T17:30:53;12.60;99.90
9177;DHT22;4623;54.310;10.112;2022-09-27T17:33:20;12.70;99.90
9177;DHT22;4623;54.310;10.112;2022-09-27T17:35:48;12.70;99.90
9177;DHT22;4623;54.310;10.112;2022-09-27T17:38:23;12.70;99.90
9177;DHT22;4623;54.310;10.112;2022-09-27T17:40:48;12.70;99.90
9177;DHT22;4623;54.310;10.112;2022-09-27T17:43:23;12.70;99.90
9177;DHT22;4623;54.310;10.112;2022-09-27T17:45:48;12.70;99.90
9177;DHT22;4623;54.310;10.112;2022-09-27T17:48:14;12.60;99.90
9177;DHT22;4623;54.310;10.112;2022-09-27T17:50:58;12.60;99.90
9177;DHT22;4623;54.310;10.112;2022-09-27T17:53:24;12.60;99.90
9177;DHT22;4623;54.310;10.112;2022-09-27T17:55:49;12.60;99.90
9177;DHT22;4623;54.310;10.112;2022-09-27T17:58:16;12.60;99.90
9177;DHT22;4623;54.310;10.112;2022-09-27T18:00:41;12.50;99.90
9177;DHT22;4623;54.310;10.112;2022-09-27T18:03:07;12.50;99.90
9177;DHT22;4623;54.310;10.112;2022-09-27T18:05:32;12.50;99.90
9177;DHT22;4623;54.310;10.112;2022-09-27T18:07:58;12.50;99.90
9177;DHT22;4623;54.310;10.112;2022-09-27T18:10:24;12.50;99.90
9177;DHT22;4623;54.310;10.112;2022-09-27T18:12:51;12.50;99.90
9177;DHT22;4623;54.310;10.112;2022-09-27T18:15:18;12.40;99.90
9177;DHT22;4623;54.310;10.112;2022-09-27T18:17:48;12.40;99.90
9177;DHT22;4623;54.310;10.112;2022-09-27T18:20:14;12.40;99.90
9177;DHT22;4623;54.310;10.112;2022-09-27T18:22:40;12.40;99.90
9177;DHT22;4623;54.310;10.112;2022-09-27T18:25:06;12.40;99.90
9177;DHT22;4623;54.310;10.112;2022-09-27T18:27:31;12.40;99.90
9177;DHT22;4623;54.310;10.112;2022-09-27T18:29:59;12.30;99.90
9177;DHT22;4623;54.310;10.112;2022-09-27T18:32:27;12.30;99.90
9177;DHT22;4623;54.310;10.112;2022-09-27T18:34:53;12.20;99.90
9177;DHT22;4623;54.310;10.112;2022-09-27T18:37:18;12.20;99.90
9177;DHT22;4623;54.310;10.112;2022-09-27T18:39:44;12.10;99.90
9177;DHT22;4623;54.310;10.112;2022-09-27T18:42:09;12.10;99.90